Time;durP1;ratioP1;P1;durP2;ratioP2;P2;SDS_P1;SDS_P2;PMS_P1;PMS_P2;Temp;Humidity;BMP_temperature;BMP_pressure;BME280_temperature;BME280_humidity;BME280_pressure;Samples;Min_cycle;Max_cycle;Signal;HPM_P1;HPM_P2
2024/01/01 00:02:24;;;;;;;18.60;7.20;;;9.10;77.10;;;;;;4972639;28;20461;-77
2024/01/01 00:04:51;;;;;;;28.97;8.97;;;9.10;77.10;;;;;;4972301;28;20447;-77
2024/01/01 00:07:20;;;;;;;11.20;6.37;;;9.10;77.10;;;;;;4972817;28;20454;-77
2024/01/01 00:09:48;;;;;;;13.33;6.27;;;9.10;77.00;;;;;;4972334;28;20455;-77
2024/01/01 00:12:15;;;;;;;15.00;5.73;;;9.10;77.10;;;;;;4972285;28;20459;-76
2024/01/01 00:14:42;;;;;;;19.13;6.30;;;9.10;71.30;;;;;;4972319;28;21054;-76
2024/01/01 00:17:09;;;;;;;15.10;5.53;;;9.10;74.40;;;;;;4972825;28;20461;-77
2024/01/01 00:19:36;;;;;;;18.10;6.37;;;9.10;74.70;;;;;;4972372;28;21013;-76
2024/01/01 00:22:03;;;;;;;14.30;5.80;;;9.00;73.20;;;;;;4972502;28;20462;-77
2024/01/01 00:24:30;;;;;;;12.07;4.63;;;8.90;76.90;;;;;;4972074;28;20445;-76
2024/01/01 00:26:59;;;;;;;11.60;4.40;;;8.80;75.40;;;;;;4972586;28;20455;-76
2024/01/01 00:29:26;;;;;;;18.03;4.40;;;8.80;76.70;;;;;;4972024;28;20458;-76
2024/01/01 00:31:52;;;;;;;12.43;3.57;;;8.90;74.70;;;;;;4972607;28;20541;-76
2024/01/01 00:34:20;;;;;;;11.47;4.23;;;8.90;74.30;;;;;;4972225;28;20485;-76
2024/01/01 00:36:48;;;;;;;12.10;5.10;;;9.00;72.20;;;;;;4972024;28;20910;-76
2024/01/01 00:39:14;;;;;;;12.80;3.80;;;9.10;71.20;;;;;;4971922;28;20530;-77
2024/01/01 00:41:41;;;;;;;12.90;3.23;;;9.10;71.90;;;;;;4972561;28;20614;-76
2024/01/01 00:44:09;;;;;;;20.07;4.03;;;9.10;70.80;;;;;;4972015;28;20443;-76
2024/01/01 00:46:36;;;;;;;16.53;3.37;;;9.10;71.10;;;;;;4971886;28;20959;-76
2024/01/01 00:49:03;;;;;;;12.53;4.00;;;9.10;70.10;;;;;;4971982;28;20455;-77
2024/01/01 00:51:30;;;;;;;13.20;4.53;;;9.10;69.40;;;;;;4972078;28;20461;-77
2024/01/01 00:53:57;;;;;;;9.57;3.30;;;9.10;69.30;;;;;;4972037;28;20478;-77
2024/01/01 00:56:24;;;;;;;11.40;3.03;;;9.10;71.00;;;;;;4971963;28;20455;-77
2024/01/01 00:58:51;;;;;;;12.03;3.50;;;9.10;69.70;;;;;;4975888;28;20468;-76
2024/01/01 01:01:19;;;;;;;11.17;2.50;;;9.10;69.30;;;;;;4976225;28;20477;-77
2024/01/01 01:03:46;;;;;;;12.80;3.10;;;9.00;69.20;;;;;;4976030;28;20820;-77
2024/01/01 01:06:13;;;;;;;13.10;4.07;;;9.00;69.20;;;;;;4975407;28;20464;-76
2024/01/01 01:08:40;;;;;;;11.67;2.67;;;9.10;69.30;;;;;;4975825;28;20457;-77
2024/01/01 01:11:07;;;;;;;9.83;2.10;;;9.00;69.20;;;;;;4975843;28;20447;-77
2024/01/01 01:13:34;;;;;;;11.40;2.60;;;9.10;69.30;;;;;;4975885;28;20461;-76
2024/01/01 01:16:00;;;;;;;8.87;2.80;;;9.00;69.20;;;;;;4975554;28;20457;-77
2024/01/01 01:18:29;;;;;;;13.73;2.93;;;9.00;69.20;;;;;;4975297;28;20541;-77
2024/01/01 01:20:56;;;;;;;8.67;2.53;;;9.00;70.50;;;;;;4975599;28;20889;-77
2024/01/01 01:23:23;;;;;;;10.67;1.80;;;9.00;69.20;;;;;;4975678;28;20465;-78
2024/01/01 01:25:50;;;;;;;12.03;3.37;;;8.90;76.20;;;;;;4974918;28;20454;-77
2024/01/01 01:28:22;;;;;;;10.33;2.73;;;9.00;72.80;;;;;;4974984;28;20453;-78
2024/01/01 01:30:49;;;;;;;13.30;2.70;;;8.90;69.10;;;;;;4975589;28;20459;-77
2024/01/01 01:33:17;;;;;;;11.40;4.93;;;9.00;69.20;;;;;;4975133;28;20545;-76
2024/01/01 01:35:46;;;;;;;10.77;2.43;;;8.90;69.20;;;;;;4974770;28;20573;-77
2024/01/01 01:38:11;;;;;;;7.13;2.40;;;8.90;69.20;;;;;;4975088;28;20451;-77
2024/01/01 01:40:38;;;;;;;11.80;2.50;;;8.90;69.10;;;;;;4975426;28;20529;-77
2024/01/01 01:43:20;;;;;;;11.37;3.27;;;9.00;69.20;;;;;;4974903;28;20447;-76
2024/01/01 01:45:47;;;;;;;7.53;2.20;;;9.00;69.20;;;;;;4974796;28;20455;-77
2024/01/01 01:48:15;;;;;;;7.40;2.87;;;9.00;69.20;;;;;;4974922;28;20935;-77
2024/01/01 01:50:42;;;;;;;13.73;2.77;;;9.00;69.20;;;;;;4975359;28;20888;-77
2024/01/01 01:53:11;;;;;;;9.90;2.77;;;8.90;72.80;;;;;;4974450;28;20968;-76
2024/01/01 01:55:38;;;;;;;10.60;2.40;;;8.90;75.40;;;;;;4974808;28;20534;-77
2024/01/01 01:58:05;;;;;;;14.03;3.50;;;8.80;73.70;;;;;;4974086;28;20562;-77
2024/01/01 02:00:32;;;;;;;15.97;2.77;;;8.80;76.80;;;;;;4974578;28;20534;-77
2024/01/01 02:03:00;;;;;;;11.13;3.30;;;8.60;76.70;;;;;;4974531;28;20839;-77
2024/01/01 02:05:27;;;;;;;13.33;3.30;;;8.30;90.50;;;;;;4974599;28;20541;-78
2024/01/01 02:07:54;;;;;;;20.27;4.63;;;8.00;90.60;;;;;;4974290;28;20453;-77
2024/01/01 02:10:22;;;;;;;15.40;5.13;;;7.80;95.30;;;;;;4973870;28;20538;-78
2024/01/01 02:12:49;;;;;;;8.50;5.10;;;7.20;99.90;;;;;;4974431;28;20450;-78
2024/01/01 02:15:16;;;;;;;58.37;55.40;;;7.00;99.90;;;;;;4974243;28;20907;-78
2024/01/01 02:17:43;;;;;;;82.20;79.03;;;6.90;99.90;;;;;;4975186;28;20505;-78
2024/01/01 02:20:10;;;;;;;69.43;65.80;;;6.80;99.90;;;;;;4974490;28;20458;-78
2024/01/01 02:22:39;;;;;;;149.00;143.50;;;6.80;99.90;;;;;;4974544;28;20540;-78
2024/01/01 02:25:09;;;;;;;314.13;304.33;;;6.80;99.90;;;;;;4974286;28;20448;-77
2024/01/01 02:27:37;;;;;;;270.83;262.03;;;6.80;99.90;;;;;;4974467;28;20464;-77
2024/01/01 02:30:10;;;;;;;354.70;343.53;;;6.90;99.90;;;;;;4974422;28;20489;-78
2024/01/01 02:32:37;;;;;;;471.07;456.10;;;6.80;99.90;;;;;;4974371;28;20460;-77
2024/01/01 02:35:07;;;;;;;518.63;502.50;;;6.80;99.90;;;;;;4974354;28;20485;-77
2024/01/01 02:37:34;;;;;;;551.03;532.93;;;6.80;99.90;;;;;;4974345;28;20542;-77
2024/01/01 02:40:01;;;;;;;607.80;586.80;;;6.80;99.90;;;;;;4973825;28;20951;-77
2024/01/01 02:42:29;;;;;;;506.67;490.40;;;6.80;99.90;;;;;;4974178;28;20468;-77
2024/01/01 02:44:56;;;;;;;547.47;528.27;;;6.80;99.90;;;;;;4973853;28;20456;-77
2024/01/01 02:47:23;;;;;;;496.40;480.00;;;6.90;99.90;;;;;;4974532;28;20666;-80
2024/01/01 02:49:50;;;;;;;560.93;540.40;;;7.00;99.90;;;;;;4974045;28;20457;-77
2024/01/01 02:52:20;;;;;;;550.13;530.70;;;7.00;99.90;;;;;;4973886;28;20810;-77
2024/01/01 02:54:47;;;;;;;564.83;544.83;;;7.00;99.90;;;;;;4973603;28;21017;-77
2024/01/01 02:57:14;;;;;;;558.30;538.90;;;7.10;99.90;;;;;;4973286;28;20447;-77
2024/01/01 02:59:42;;;;;;;583.17;562.50;;;7.10;99.90;;;;;;4973721;28;20462;-79
2024/01/01 03:02:10;;;;;;;483.57;468.17;;;7.10;99.90;;;;;;4974062;28;20457;-79
2024/01/01 03:04:37;;;;;;;571.47;551.73;;;7.20;99.90;;;;;;4973622;28;20485;-78
2024/01/01 03:07:03;;;;;;;480.10;464.80;;;7.20;99.90;;;;;;4974123;28;20884;-78
2024/01/01 03:09:30;;;;;;;479.27;463.03;;;7.20;99.90;;;;;;4973976;28;20492;-78
2024/01/01 03:11:57;;;;;;;361.77;349.53;;;7.20;99.90;;;;;;4974042;28;20878;-77
2024/01/01 03:14:24;;;;;;;368.70;357.30;;;7.20;99.90;;;;;;4973799;28;20584;-77
2024/01/01 03:16:53;;;;;;;390.83;378.43;;;7.20;99.90;;;;;;4973355;28;20461;-77
2024/01/01 03:19:20;;;;;;;377.10;365.10;;;7.20;99.90;;;;;;4973366;28;20457;-77
2024/01/01 03:21:47;;;;;;;327.67;317.40;;;7.30;99.90;;;;;;4972874;28;20956;-77
2024/01/01 03:24:14;;;;;;;351.50;338.77;;;7.30;99.90;;;;;;4973776;28;20890;-77
2024/01/01 03:26:41;;;;;;;293.57;283.87;;;7.30;99.90;;;;;;4973173;28;20537;-79
2024/01/01 03:29:08;;;;;;;332.00;321.63;;;7.30;99.90;;;;;;4973257;28;20455;-78
2024/01/01 03:31:35;;;;;;;349.63;338.87;;;7.30;99.90;;;;;;4973550;28;20454;-78
2024/01/01 03:34:03;;;;;;;270.87;261.97;;;7.30;99.90;;;;;;4973312;28;20545;-77
2024/01/01 03:36:30;;;;;;;299.27;289.27;;;7.30;99.90;;;;;;4972843;28;20457;-77
2024/01/01 03:38:57;;;;;;;318.33;307.77;;;7.30;99.90;;;;;;4973027;28;20454;-78
2024/01/01 03:41:26;;;;;;;256.03;248.17;;;7.20;99.90;;;;;;4973476;28;20461;-78
2024/01/01 03:43:53;;;;;;;201.60;193.90;;;7.30;99.90;;;;;;4972891;28;20983;-78
2024/01/01 03:46:20;;;;;;;140.10;133.90;;;7.30;99.90;;;;;;4972878;28;20450;-78
2024/01/01 03:48:47;;;;;;;158.00;152.10;;;7.20;99.90;;;;;;4972700;28;20452;-78
2024/01/01 03:51:15;;;;;;;150.60;143.97;;;7.20;99.90;;;;;;4973161;28;20868;-78
2024/01/01 03:53:42;;;;;;;110.40;105.03;;;7.20;99.90;;;;;;4973155;28;20530;-78
2024/01/01 03:56:09;;;;;;;91.67;87.13;;;7.30;99.90;;;;;;4972862;28;20843;-78
2024/01/01 03:58:36;;;;;;;36.17;33.10;;;7.30;99.90;;;;;;4972611;28;21038;-79
2024/01/01 04:01:03;;;;;;;37.47;34.93;;;7.40;99.90;;;;;;4972957;28;20462;-78
2024/01/01 04:03:30;;;;;;;23.53;21.57;;;7.40;99.90;;;;;;4972572;28;20468;-78
2024/01/01 04:05:57;;;;;;;23.50;21.70;;;7.50;99.90;;;;;;4972722;28;20511;-78
2024/01/01 04:08:25;;;;;;;16.13;13.77;;;7.50;99.90;;;;;;4972792;28;20544;-78
2024/01/01 04:10:52;;;;;;;20.53;12.03;;;7.50;99.40;;;;;;4972976;28;20454;-78
2024/01/01 04:13:19;;;;;;;17.27;7.10;;;7.50;97.10;;;;;;4972503;28;20950;-78
2024/01/01 04:15:46;;;;;;;9.30;6.43;;;7.60;97.20;;;;;;4972236;28;20849;-79
2024/01/01 04:18:13;;;;;;;13.13;6.43;;;7.60;97.10;;;;;;4972743;28;20458;-77
2024/01/01 04:20:40;;;;;;;14.03;5.30;;;7.60;97.30;;;;;;4972746;28;20875;-78
2024/01/01 04:23:07;;;;;;;17.40;5.30;;;7.60;97.10;;;;;;4972888;28;20552;-79
2024/01/01 04:25:35;;;;;;;15.97;4.30;;;7.70;97.10;;;;;;4972898;28;20570;-78
2024/01/01 04:28:02;;;;;;;18.37;4.20;;;7.60;97.10;;;;;;4972679;28;20460;-78
2024/01/01 04:30:29;;;;;;;12.50;3.90;;;7.60;97.10;;;;;;4972737;28;20529;-78
2024/01/01 04:32:55;;;;;;;14.60;4.17;;;7.70;94.70;;;;;;4971857;28;20524;-78
2024/01/01 04:35:22;;;;;;;14.33;3.87;;;7.80;94.90;;;;;;4971819;28;20482;-79
2024/01/01 04:37:49;;;;;;;12.63;3.93;;;7.70;94.10;;;;;;4971586;28;20824;-79
2024/01/01 04:40:16;;;;;;;15.97;4.10;;;7.70;96.30;;;;;;4971872;28;20447;-79
2024/01/01 04:42:48;;;;;;;17.00;4.03;;;7.80;92.10;;;;;;4972000;28;20820;-80
2024/01/01 04:45:15;;;;;;;15.13;4.03;;;7.80;92.20;;;;;;4971401;28;20474;-78
2024/01/01 04:47:42;;;;;;;15.03;4.13;;;7.80;91.90;;;;;;4971315;28;20922;-78
2024/01/01 04:50:10;;;;;;;12.30;2.93;;;7.80;91.70;;;;;;4971137;28;20532;-78
2024/01/01 04:52:37;;;;;;;13.43;4.17;;;7.70;91.60;;;;;;4972423;28;20454;-78
2024/01/01 04:55:04;;;;;;;14.53;3.80;;;7.70;91.40;;;;;;4971883;28;20505;-78
2024/01/01 04:57:31;;;;;;;11.03;3.07;;;7.70;90.50;;;;;;4971235;28;20462;-79
2024/01/01 04:59:59;;;;;;;14.80;3.90;;;7.70;90.60;;;;;;4972234;28;20465;-77
2024/01/01 05:02:26;;;;;;;10.37;3.23;;;7.70;90.50;;;;;;4972324;28;20465;-77
2024/01/01 05:04:53;;;;;;;19.37;5.80;;;7.80;90.60;;;;;;4971770;28;20463;-79
2024/01/01 05:07:20;;;;;;;14.00;3.80;;;7.90;90.60;;;;;;4971970;28;20482;-79
2024/01/01 05:09:46;;;;;;;13.77;3.83;;;7.90;90.60;;;;;;4971663;28;20450;-78
2024/01/01 05:12:14;;;;;;;12.03;4.67;;;7.90;90.60;;;;;;4971777;28;20812;-78
2024/01/01 05:14:40;;;;;;;16.40;3.50;;;8.00;90.60;;;;;;4971856;28;20534;-78
2024/01/01 05:17:09;;;;;;;19.83;4.33;;;8.00;90.60;;;;;;4971798;28;20530;-79
2024/01/01 05:19:35;;;;;;;15.57;3.77;;;8.00;90.60;;;;;;4971603;28;20456;-78
2024/01/01 05:22:04;;;;;;;10.70;3.67;;;8.00;90.60;;;;;;4971741;28;20537;-77
2024/01/01 05:24:31;;;;;;;16.03;3.40;;;7.90;90.60;;;;;;4971898;28;20462;-77
2024/01/01 05:26:58;;;;;;;16.80;4.20;;;7.80;90.60;;;;;;4971408;28;20922;-77
2024/01/01 05:29:24;;;;;;;12.00;3.00;;;7.80;90.50;;;;;;4964553;28;20533;-78
2024/01/01 05:31:51;;;;;;;13.57;3.07;;;7.80;90.60;;;;;;4971692;28;20553;-81
2024/01/01 05:34:19;;;;;;;25.10;5.10;;;7.80;90.90;;;;;;4971445;28;20549;-77
2024/01/01 05:36:46;;;;;;;14.43;3.27;;;7.90;90.60;;;;;;4971529;28;20475;-77
2024/01/01 05:39:14;;;;;;;18.07;3.77;;;8.00;90.60;;;;;;4971505;28;20464;-76
2024/01/01 05:41:41;;;;;;;12.43;2.97;;;8.00;90.60;;;;;;4971899;28;20500;-76
2024/01/01 05:44:08;;;;;;;11.73;2.80;;;8.00;90.60;;;;;;4972429;28;20952;-77
2024/01/01 05:46:35;;;;;;;14.20;3.37;;;8.10;90.60;;;;;;4975058;28;20442;-79
2024/01/01 05:49:02;;;;;;;9.70;4.00;;;8.20;90.70;;;;;;4975070;28;20455;-77
2024/01/01 05:51:30;;;;;;;14.93;3.10;;;8.20;90.70;;;;;;4975171;28;20491;-77
2024/01/01 05:53:57;;;;;;;15.37;4.53;;;8.30;86.90;;;;;;4974939;28;20550;-77
2024/01/01 05:56:25;;;;;;;13.67;3.70;;;8.20;90.60;;;;;;4974911;28;20475;-79
2024/01/01 05:58:52;;;;;;;18.90;3.97;;;8.20;90.10;;;;;;4974630;28;20458;-77
2024/01/01 06:01:19;;;;;;;23.30;3.73;;;8.20;90.60;;;;;;4975185;28;20546;-77
2024/01/01 06:03:46;;;;;;;16.50;4.10;;;8.20;90.60;;;;;;4974828;28;20465;-77
2024/01/01 06:06:14;;;;;;;17.70;4.40;;;8.20;90.90;;;;;;4974571;28;20455;-77
2024/01/01 06:08:42;;;;;;;10.43;4.03;;;8.20;90.70;;;;;;4974891;28;20549;-77
2024/01/01 06:11:09;;;;;;;18.03;4.30;;;8.20;90.70;;;;;;4975063;28;20809;-77
2024/01/01 06:13:36;;;;;;;15.53;3.30;;;8.20;90.60;;;;;;4974582;28;20939;-77
2024/01/01 06:16:04;;;;;;;11.23;3.30;;;8.20;90.60;;;;;;4974443;28;21102;-77
2024/01/01 06:18:30;;;;;;;17.07;4.20;;;8.20;90.70;;;;;;4974460;28;20525;-78
2024/01/01 06:20:57;;;;;;;15.33;4.40;;;8.20;90.70;;;;;;4974401;28;20486;-77
2024/01/01 06:23:24;;;;;;;17.67;4.13;;;8.10;90.70;;;;;;4974813;28;20533;-76
2024/01/01 06:25:53;;;;;;;14.53;4.10;;;8.10;90.70;;;;;;4974069;28;20936;-76
2024/01/01 06:28:20;;;;;;;14.63;3.30;;;8.10;90.70;;;;;;4974374;28;20454;-77
2024/01/01 06:30:46;;;;;;;22.53;3.90;;;8.00;90.60;;;;;;4974556;28;20516;-77
2024/01/01 06:33:14;;;;;;;12.03;3.73;;;7.90;90.60;;;;;;4973659;28;20451;-81
2024/01/01 06:35:41;;;;;;;13.03;4.90;;;7.90;90.60;;;;;;4974004;28;20481;-77
2024/01/01 06:38:08;;;;;;;17.00;4.10;;;7.80;90.60;;;;;;4973888;28;20954;-77
2024/01/01 06:40:35;;;;;;;15.70;4.60;;;7.70;92.40;;;;;;4974012;28;20458;-76
2024/01/01 06:43:03;;;;;;;10.60;3.90;;;7.70;91.70;;;;;;4974110;28;20536;-77
2024/01/01 06:45:30;;;;;;;14.50;4.40;;;7.70;91.90;;;;;;4973682;28;20457;-77
2024/01/01 06:47:57;;;;;;;15.27;4.23;;;7.70;90.60;;;;;;4973510;28;20480;-76
2024/01/01 06:50:24;;;;;;;14.80;4.17;;;7.70;90.50;;;;;;4973779;28;20543;-77
2024/01/01 06:52:51;;;;;;;14.80;3.80;;;7.80;90.60;;;;;;4973786;28;20945;-77
2024/01/01 06:55:18;;;;;;;15.50;4.73;;;7.80;90.60;;;;;;4973005;28;20541;-77
2024/01/01 06:57:45;;;;;;;13.90;3.80;;;7.80;92.10;;;;;;4973595;28;20458;-78
2024/01/01 07:00:15;;;;;;;19.77;4.43;;;7.80;90.80;;;;;;4971998;28;20922;-79
2024/01/01 07:02:42;;;;;;;14.83;4.60;;;7.80;91.40;;;;;;4972645;28;20458;-78
2024/01/01 07:05:09;;;;;;;17.67;4.30;;;7.80;90.60;;;;;;4973663;28;20450;-77
2024/01/01 07:07:36;;;;;;;14.13;4.50;;;7.80;92.20;;;;;;4973356;28;20541;-77
2024/01/01 07:10:06;;;;;;;16.97;4.20;;;7.70;91.50;;;;;;4973476;28;20477;-78
2024/01/01 07:12:33;;;;;;;11.63;5.40;;;7.80;91.10;;;;;;4972817;28;20453;-78
2024/01/01 07:15:00;;;;;;;13.97;3.93;;;7.70;92.30;;;;;;4972851;28;20814;-77
2024/01/01 07:17:29;;;;;;;9.93;3.97;;;7.80;90.70;;;;;;4972297;28;20484;-78
2024/01/01 07:19:56;;;;;;;13.90;4.60;;;7.80;91.30;;;;;;4972149;28;20985;-77
2024/01/01 07:22:23;;;;;;;20.23;3.90;;;7.80;92.30;;;;;;4972782;28;20534;-78
2024/01/01 07:24:50;;;;;;;13.43;5.00;;;7.70;92.50;;;;;;4973310;28;20454;-77
2024/01/01 07:27:17;;;;;;;13.87;5.97;;;7.60;93.60;;;;;;4973311;28;20536;-77
2024/01/01 07:29:44;;;;;;;9.30;5.00;;;7.60;93.80;;;;;;4972442;28;20533;-78
2024/01/01 07:32:11;;;;;;;10.97;3.50;;;7.60;93.80;;;;;;4968284;28;20513;-77
2024/01/01 07:34:39;;;;;;;10.57;4.00;;;7.70;90.80;;;;;;4973092;28;20509;-76
2024/01/01 07:37:07;;;;;;;11.17;4.63;;;7.70;91.50;;;;;;4973347;28;20490;-77
2024/01/01 07:39:34;;;;;;;12.70;4.80;;;7.70;92.90;;;;;;4972384;28;20536;-77
2024/01/01 07:42:01;;;;;;;6.33;3.50;;;7.60;93.40;;;;;;4972855;28;20453;-77
2024/01/01 07:44:28;;;;;;;8.40;3.37;;;7.60;93.30;;;;;;4972385;28;20458;-78
2024/01/01 07:46:55;;;;;;;10.10;3.47;;;7.60;91.20;;;;;;4972325;28;20935;-76
2024/01/01 07:49:22;;;;;;;10.90;4.30;;;7.60;90.50;;;;;;4971514;28;20542;-77
2024/01/01 07:51:50;;;;;;;12.40;6.23;;;7.60;90.50;;;;;;4972558;28;20446;-77
2024/01/01 07:54:17;;;;;;;9.27;3.90;;;7.60;90.50;;;;;;4971949;28;20466;-77
2024/01/01 07:56:47;;;;;;;9.33;4.57;;;7.60;91.10;;;;;;4972094;28;20474;-76
2024/01/01 07:59:14;;;;;;;11.40;5.50;;;7.50;90.50;;;;;;4970227;28;20455;-76
2024/01/01 08:01:41;;;;;;;14.77;5.40;;;7.60;91.80;;;;;;4972354;28;20454;-77
2024/01/01 08:04:08;;;;;;;16.20;7.47;;;7.50;93.50;;;;;;4971652;28;20823;-77
2024/01/01 08:06:35;;;;;;;15.00;5.87;;;7.50;93.80;;;;;;4970440;28;20447;-77
2024/01/01 08:09:04;;;;;;;10.63;4.10;;;7.40;92.10;;;;;;4971287;28;20456;-76
2024/01/01 08:11:31;;;;;;;13.20;5.80;;;7.40;92.70;;;;;;4972619;28;20798;-77
2024/01/01 08:13:58;;;;;;;11.73;5.80;;;7.40;93.30;;;;;;4971590;28;21009;-76
2024/01/01 08:16:25;;;;;;;12.73;8.70;;;7.40;93.80;;;;;;4971766;28;20476;-76
2024/01/01 08:18:52;;;;;;;12.00;8.03;;;7.40;93.80;;;;;;4971935;28;20550;-76
2024/01/01 08:21:19;;;;;;;13.50;6.97;;;7.50;93.80;;;;;;4971523;28;20962;-76
2024/01/01 08:23:46;;;;;;;11.37;8.20;;;7.50;93.60;;;;;;4971065;28;20486;-76
2024/01/01 08:26:15;;;;;;;11.80;9.20;;;7.50;93.10;;;;;;4971991;28;20454;-76
2024/01/01 08:28:41;;;;;;;10.73;6.40;;;7.50;93.80;;;;;;4972303;28;20520;-76
2024/01/01 08:31:08;;;;;;;8.10;5.30;;;7.60;92.00;;;;;;4971952;28;20450;-78
2024/01/01 08:33:35;;;;;;;8.27;4.23;;;7.60;92.70;;;;;;4971428;28;20939;-77
2024/01/01 08:36:02;;;;;;;13.93;3.80;;;7.60;91.00;;;;;;4971942;28;20478;-77
2024/01/01 08:38:29;;;;;;;10.57;6.03;;;7.70;90.50;;;;;;4969295;28;20579;-76
2024/01/01 08:40:56;;;;;;;14.03;4.10;;;7.70;91.20;;;;;;4970878;28;20484;-76
2024/01/01 08:43:24;;;;;;;6.93;3.40;;;7.70;90.50;;;;;;4969350;28;20545;-78
2024/01/01 08:45:51;;;;;;;6.57;2.77;;;7.70;90.50;;;;;;4970072;28;20966;-77
2024/01/01 08:48:18;;;;;;;5.70;3.07;;;7.80;90.60;;;;;;4971080;28;20540;-77
2024/01/01 08:50:45;;;;;;;8.73;2.70;;;7.80;90.60;;;;;;4971455;28;21043;-76
2024/01/01 08:53:12;;;;;;;4.47;2.10;;;7.90;90.60;;;;;;4971463;28;20454;-76
2024/01/01 08:55:39;;;;;;;19.13;2.63;;;7.90;90.60;;;;;;4970860;28;20759;-76
2024/01/01 08:58:07;;;;;;;8.53;2.87;;;8.00;91.00;;;;;;4970289;28;20529;-77
2024/01/01 09:00:35;;;;;;;7.53;2.50;;;8.10;90.70;;;;;;4968956;28;20465;-76
2024/01/01 09:03:02;;;;;;;9.93;2.37;;;8.20;90.70;;;;;;4969259;28;20451;-76
2024/01/01 09:05:30;;;;;;;6.63;2.10;;;8.20;90.70;;;;;;4968273;28;20518;-78
2024/01/01 09:07:57;;;;;;;8.23;2.43;;;8.20;90.70;;;;;;4968986;28;20789;-76
2024/01/01 09:10:23;;;;;;;9.70;2.20;;;8.20;90.70;;;;;;4969093;28;20623;-77
2024/01/01 09:12:50;;;;;;;9.43;2.60;;;8.20;90.70;;;;;;4969526;28;20879;-76
2024/01/01 09:15:18;;;;;;;6.80;2.27;;;8.10;90.70;;;;;;4971143;28;20458;-76
2024/01/01 09:17:46;;;;;;;5.87;2.40;;;8.10;90.70;;;;;;4972356;28;20489;-76
2024/01/01 09:20:13;;;;;;;10.47;2.43;;;8.00;90.60;;;;;;4975260;28;20457;-78
2024/01/01 09:22:40;;;;;;;9.20;2.20;;;8.00;90.60;;;;;;4975773;28;20544;-77
2024/01/01 09:25:07;;;;;;;11.87;2.83;;;8.00;90.60;;;;;;4975440;28;20509;-76
2024/01/01 09:27:34;;;;;;;5.20;1.70;;;8.00;90.60;;;;;;4975622;28;20962;-77
2024/01/01 09:30:01;;;;;;;5.73;1.97;;;8.00;90.60;;;;;;4975391;28;20454;-77
2024/01/01 09:32:28;;;;;;;7.53;2.30;;;7.90;90.60;;;;;;4974914;28;20825;-77
2024/01/01 09:34:57;;;;;;;5.67;2.10;;;7.90;90.60;;;;;;4975325;28;20468;-76
2024/01/01 09:37:24;;;;;;;7.80;2.50;;;8.00;90.70;;;;;;4975110;28;20708;-76
2024/01/01 09:39:51;;;;;;;8.73;2.70;;;8.00;90.60;;;;;;4975280;28;20451;-76
2024/01/01 09:42:18;;;;;;;7.03;2.67;;;8.00;90.60;;;;;;4975185;28;20468;-77
2024/01/01 09:44:48;;;;;;;8.17;2.83;;;8.00;90.60;;;;;;4974248;28;20537;-77
2024/01/01 09:47:16;;;;;;;12.37;2.90;;;8.00;90.60;;;;;;4974458;28;21002;-77
2024/01/01 09:49:43;;;;;;;6.00;2.73;;;8.00;90.60;;;;;;4974865;28;20465;-76
2024/01/01 09:52:15;;;;;;;7.07;3.10;;;8.00;90.60;;;;;;4975231;28;20450;-76
2024/01/01 09:54:42;;;;;;;9.63;3.60;;;8.10;90.70;;;;;;4974901;28;20481;-76
2024/01/01 09:57:09;;;;;;;9.23;2.80;;;8.10;91.00;;;;;;4974954;28;20488;-77
2024/01/01 09:59:37;;;;;;;7.77;2.60;;;8.20;90.70;;;;;;4974709;28;20497;-80
2024/01/01 10:02:04;;;;;;;8.20;2.63;;;8.10;90.70;;;;;;4974098;28;20450;-76
2024/01/01 10:04:31;;;;;;;12.20;4.83;;;8.20;90.70;;;;;;4974067;28;20457;-76
2024/01/01 10:06:59;;;;;;;6.37;2.30;;;8.30;90.70;;;;;;4974542;28;20832;-77
2024/01/01 10:09:28;;;;;;;4.73;2.10;;;8.30;91.10;;;;;;4974652;28;20450;-77
2024/01/01 10:12:09;;;;;;;8.23;2.33;;;8.30;90.70;;;;;;4975132;28;20482;-77
2024/01/01 10:14:45;;;;;;;6.30;2.60;;;8.30;90.70;;;;;;4974420;28;20454;-77
2024/01/01 10:17:13;;;;;;;8.80;2.87;;;8.40;90.80;;;;;;4974357;28;20842;-77
2024/01/01 10:19:51;;;;;;;12.63;2.83;;;8.30;90.70;;;;;;4974407;28;20486;-76
2024/01/01 10:22:19;;;;;;;10.40;1.90;;;8.30;90.70;;;;;;4975018;28;20792;-77
2024/01/01 10:24:48;;;;;;;7.07;2.40;;;8.30;90.70;;;;;;4973409;28;20557;-77
2024/01/01 10:27:18;;;;;;;8.03;2.83;;;8.30;90.70;;;;;;4974363;28;20756;-78
2024/01/01 10:29:47;;;;;;;10.60;2.60;;;8.40;90.80;;;;;;4973336;28;20465;-77
2024/01/01 10:32:16;;;;;;;9.20;2.57;;;8.40;90.80;;;;;;4973993;28;20458;-76
2024/01/01 10:34:46;;;;;;;6.30;2.80;;;8.50;90.80;;;;;;4973919;28;20862;-78
2024/01/01 10:37:15;;;;;;;8.33;2.50;;;8.60;90.80;;;;;;4973731;28;20863;-77
2024/01/01 10:39:44;;;;;;;6.93;2.27;;;8.80;90.90;;;;;;4974125;28;20455;-76
2024/01/01 10:42:13;;;;;;;11.67;2.80;;;8.90;90.70;;;;;;4974322;28;20451;-77
2024/01/01 10:44:40;;;;;;;15.23;2.30;;;9.10;91.00;;;;;;4973346;28;20454;-76
2024/01/01 10:47:09;;;;;;;8.07;2.23;;;9.30;88.30;;;;;;4973619;28;20457;-77
2024/01/01 10:49:39;;;;;;;9.53;1.87;;;9.50;85.40;;;;;;4973433;28;20943;-77
2024/01/01 10:52:24;;;;;;;11.23;3.90;;;9.50;85.20;;;;;;4974047;28;20461;-77
2024/01/01 10:55:24;;;;;;;10.93;2.70;;;9.40;85.10;;;;;;4973436;28;20461;-77
2024/01/01 10:58:21;;;;;;;11.60;2.57;;;9.10;84.80;;;;;;4973551;28;20938;-77
2024/01/01 11:01:02;;;;;;;8.43;2.40;;;9.00;84.80;;;;;;4973334;28;20833;-77
2024/01/01 11:03:30;;;;;;;6.90;2.10;;;8.90;84.80;;;;;;4972844;28;20486;-78
2024/01/01 11:05:57;;;;;;;15.00;2.10;;;8.80;86.40;;;;;;4973452;28;20967;-77
2024/01/01 11:08:28;;;;;;;15.70;2.60;;;8.80;88.30;;;;;;4973146;28;20534;-77
2024/01/01 11:10:56;;;;;;;9.05;2.50;;;8.80;90.90;;;;;;4973979;28;20453;-77
2024/01/01 11:13:57;;;;;;;8.57;2.13;;;8.90;90.70;;;;;;4974401;28;20384;-78
2024/01/01 11:16:26;;;;;;;6.70;2.20;;;8.90;86.80;;;;;;4913800;29;20453;-78
2024/01/01 11:18:53;;;;;;;10.73;3.80;;;8.80;90.20;;;;;;4916550;29;20590;-78
2024/01/01 11:21:32;;;;;;;13.83;2.70;;;8.50;90.80;;;;;;4943741;28;20459;-80
2024/01/01 11:24:01;;;;;;;12.03;2.80;;;8.30;90.70;;;;;;4973781;28;20457;-78
2024/01/01 11:26:34;;;;;;;14.00;3.40;;;8.20;92.00;;;;;;4973530;28;20474;-78
2024/01/01 11:29:07;;;;;;;10.40;2.80;;;8.20;91.70;;;;;;4973496;28;20492;-78
2024/01/01 11:31:35;;;;;;;9.60;2.70;;;8.20;91.00;;;;;;4973869;28;20466;-79
2024/01/01 11:34:05;;;;;;;13.30;3.13;;;8.10;90.70;;;;;;4973858;28;20460;-77
2024/01/01 11:36:31;;;;;;;8.90;3.20;;;8.10;90.70;;;;;;4973218;28;20455;-77
2024/01/01 11:38:59;;;;;;;6.43;2.07;;;8.20;90.70;;;;;;4973145;28;20568;-78
2024/01/01 11:41:27;;;;;;;11.40;3.00;;;8.30;90.80;;;;;;4972676;28;20458;-77
2024/01/01 11:43:54;;;;;;;5.97;2.00;;;8.50;90.80;;;;;;4973052;28;20537;-78
2024/01/01 11:46:26;;;;;;;7.77;2.30;;;8.50;90.80;;;;;;4972685;28;20455;-78
2024/01/01 11:49:00;;;;;;;8.23;2.60;;;8.60;90.80;;;;;;4973306;28;20816;-78
2024/01/01 11:51:30;;;;;;;10.73;3.00;;;8.50;90.80;;;;;;4972871;28;20877;-77
2024/01/01 11:54:10;;;;;;;9.80;2.97;;;8.60;90.90;;;;;;4972295;28;20743;-77
2024/01/01 11:56:37;;;;;;;10.47;2.90;;;8.60;90.90;;;;;;4972289;28;20457;-78
2024/01/01 11:59:06;;;;;;;15.17;3.33;;;8.70;90.90;;;;;;4971956;28;20486;-77
2024/01/01 12:01:35;;;;;;;13.73;3.27;;;8.70;90.90;;;;;;4971915;28;20465;-77
2024/01/01 12:04:06;;;;;;;10.33;2.97;;;8.70;90.90;;;;;;4971640;28;20478;-77
2024/01/01 12:06:33;;;;;;;14.33;2.83;;;8.80;90.90;;;;;;4970976;28;20454;-80
2024/01/01 12:09:08;;;;;;;10.67;2.80;;;8.80;90.90;;;;;;4971305;28;20454;-77
2024/01/01 12:11:36;;;;;;;10.80;2.97;;;8.90;91.00;;;;;;4971670;28;20615;-79
2024/01/01 12:14:03;;;;;;;8.53;2.60;;;9.00;89.00;;;;;;4971320;28;20457;-78
2024/01/01 12:16:31;;;;;;;11.60;2.73;;;9.10;90.60;;;;;;4971082;28;20451;-78
2024/01/01 12:19:00;;;;;;;18.03;3.20;;;9.20;87.60;;;;;;4971818;28;20479;-78
2024/01/01 12:21:38;;;;;;;24.13;3.47;;;9.20;85.00;;;;;;4971907;28;20462;-78
2024/01/01 12:24:07;;;;;;;14.70;4.03;;;9.30;85.80;;;;;;4972248;28;20458;-79
2024/01/01 12:26:34;;;;;;;10.67;3.90;;;9.20;85.00;;;;;;4971927;28;20542;-78
2024/01/01 12:29:11;;;;;;;11.17;2.90;;;9.20;85.70;;;;;;4971763;28;20454;-78
2024/01/01 12:31:39;;;;;;;8.90;2.70;;;9.20;85.30;;;;;;4972158;28;20459;-78
2024/01/01 12:34:07;;;;;;;11.47;3.37;;;9.10;84.90;;;;;;4971970;28;20461;-78
2024/01/01 12:36:35;;;;;;;11.77;3.47;;;9.10;84.90;;;;;;4971763;28;20518;-78
2024/01/01 12:39:03;;;;;;;13.50;3.13;;;9.10;85.00;;;;;;4971697;28;20490;-78
2024/01/01 12:41:30;;;;;;;12.33;2.87;;;9.00;84.80;;;;;;4971939;28;20969;-78
2024/01/01 12:43:58;;;;;;;8.63;3.00;;;8.80;85.30;;;;;;4971297;28;20537;-78
2024/01/01 12:46:25;;;;;;;20.93;5.87;;;8.70;88.00;;;;;;4970577;28;20553;-79
2024/01/01 12:48:53;;;;;;;32.60;4.17;;;8.70;87.90;;;;;;4971195;28;20542;-77
2024/01/01 12:51:24;;;;;;;13.50;3.37;;;8.80;88.60;;;;;;4971036;28;20961;-79